createdAt,value
2022-10-05T00:00:37.461Z,9.418245
2022-10-05T00:01:37.480Z,9.418401
2022-10-05T00:02:37.443Z,9.418329
2022-10-05T00:03:37.429Z,9.418387
2022-10-05T00:04:37.458Z,9.418185
2022-10-05T00:05:37.410Z,9.418495
2022-10-05T00:06:37.417Z,9.418234
2022-10-05T00:07:37.406Z,9.418221
2022-10-05T00:08:38.392Z,9.418254
2022-10-05T00:09:37.382Z,9.418314
2022-10-05T00:10:37.386Z,9.418464
2022-10-05T00:11:37.375Z,9.418294
2022-10-05T00:12:37.363Z,9.418166
2022-10-05T00:13:38.359Z,9.418388
2022-10-05T00:14:37.353Z,9.418263
2022-10-05T00:15:37.358Z,9.418080
2022-10-05T00:16:37.429Z,9.418156
2022-10-05T00:17:37.650Z,9.418250
2022-10-05T00:18:37.327Z,9.418369
2022-10-05T00:19:37.335Z,9.418369
2022-10-05T00:20:37.329Z,9.418292
2022-10-05T00:21:37.302Z,9.418339
2022-10-05T00:22:37.310Z,9.418725
2022-10-05T00:23:37.294Z,9.418756
2022-10-05T00:24:37.300Z,9.418959
2022-10-05T00:25:37.298Z,9.418892
2022-10-05T00:26:37.283Z,9.418884
2022-10-05T00:27:37.279Z,9.418704
2022-10-05T00:28:37.324Z,9.418187
2022-10-05T00:29:37.255Z,9.418171
2022-10-05T00:30:37.251Z,9.418097
2022-10-05T00:31:37.323Z,9.418180
2022-10-05T00:32:37.242Z,9.418222
2022-10-05T00:33:37.226Z,9.418034
2022-10-05T00:34:37.231Z,9.418099
2022-10-05T00:35:37.230Z,9.418242
2022-10-05T00:36:37.218Z,9.418312
2022-10-05T00:37:37.218Z,9.418232
2022-10-05T00:38:37.192Z,9.418163
2022-10-05T00:39:37.191Z,9.417963
2022-10-05T00:40:37.310Z,9.418150
2022-10-05T00:41:37.168Z,9.418242
2022-10-05T00:42:37.191Z,9.418048
2022-10-05T00:43:37.159Z,9.418209
2022-10-05T00:44:37.150Z,9.418181
2022-10-05T00:45:37.178Z,9.418168
2022-10-05T00:46:37.143Z,9.418091
2022-10-05T00:47:37.137Z,9.418081
2022-10-05T00:48:37.127Z,9.418107
2022-10-05T00:49:37.122Z,9.418210
2022-10-05T00:50:37.106Z,9.418002
2022-10-05T00:51:37.103Z,9.417983
2022-10-05T00:52:37.133Z,9.417842
2022-10-05T00:53:37.113Z,9.417826
2022-10-05T00:54:37.083Z,9.417959
2022-10-05T00:55:37.085Z,9.418180
2022-10-05T00:56:37.067Z,9.418086
2022-10-05T00:57:37.066Z,9.418149
2022-10-05T00:58:37.058Z,9.418082
2022-10-05T00:59:37.057Z,9.418181
2022-10-05T01:00:37.057Z,9.418290
2022-10-05T01:01:37.112Z,9.418232
2022-10-05T01:02:37.319Z,9.418215
2022-10-05T01:03:38.025Z,9.418258
2022-10-05T01:04:38.021Z,9.418210
2022-10-05T01:05:37.002Z,9.418225
2022-10-05T01:06:37.001Z,9.418200
2022-10-05T01:07:37.009Z,9.418254
2022-10-05T01:08:36.989Z,9.418283
2022-10-05T01:09:36.992Z,9.418129
2022-10-05T01:10:36.977Z,9.418184
2022-10-05T01:11:36.968Z,9.418167
2022-10-05T01:12:36.946Z,9.418267
2022-10-05T01:13:36.965Z,9.418148
2022-10-05T01:14:36.950Z,9.418254
2022-10-05T01:15:36.929Z,9.418284
2022-10-05T01:16:36.981Z,9.418259
2022-10-05T01:17:36.931Z,9.418252
2022-10-05T01:18:36.921Z,9.418293
2022-10-05T01:19:36.921Z,9.418263
2022-10-05T01:20:36.913Z,9.418264
2022-10-05T01:21:36.898Z,9.418228
2022-10-05T01:22:36.901Z,9.418203
2022-10-05T01:23:36.901Z,9.418262
2022-10-05T01:24:36.873Z,9.418345
2022-10-05T01:25:36.869Z,9.418328
2022-10-05T01:26:36.865Z,9.418243
2022-10-05T01:27:36.865Z,9.418152
2022-10-05T01:28:36.947Z,9.418235
2022-10-05T01:29:36.850Z,9.418185
2022-10-05T01:30:36.837Z,9.418226
2022-10-05T01:31:36.949Z,9.418373
2022-10-05T01:32:36.826Z,9.418338
2022-10-05T01:33:36.825Z,9.418264
2022-10-05T01:34:36.812Z,9.418283
2022-10-05T01:35:36.810Z,9.418288
2022-10-05T01:36:36.801Z,9.418314
2022-10-05T01:37:36.794Z,9.418318
2022-10-05T01:38:36.814Z,9.418391
2022-10-05T01:39:36.785Z,9.418380
2022-10-05T01:40:36.777Z,9.418277
2022-10-05T01:41:36.778Z,9.418223
2022-10-05T01:42:37.586Z,9.418377
2022-10-05T01:43:36.765Z,9.418300
2022-10-05T01:44:36.802Z,9.418400
2022-10-05T01:45:36.796Z,9.418284
2022-10-05T01:46:36.735Z,9.418295
2022-10-05T01:47:36.725Z,9.418303
2022-10-05T01:48:36.720Z,9.418314
2022-10-05T01:49:36.731Z,9.418244
2022-10-05T01:50:36.706Z,9.418166
2022-10-05T01:51:36.725Z,9.418255
2022-10-05T01:52:36.701Z,9.418230
2022-10-05T01:53:36.694Z,9.418254
2022-10-05T01:54:36.689Z,9.418324
2022-10-05T01:55:36.686Z,9.418241
2022-10-05T01:56:36.669Z,9.418215
2022-10-05T01:57:36.660Z,9.418159
2022-10-05T01:58:36.652Z,9.418248
2022-10-05T01:59:36.662Z,9.418277
2022-10-05T02:00:36.636Z,9.418284
2022-10-05T02:01:36.732Z,9.418363
2022-10-05T02:02:36.685Z,9.418337
2022-10-05T02:03:36.624Z,9.418301
2022-10-05T02:05:00.970Z,9.418222
2022-10-05T02:05:38.609Z,9.418157
2022-10-05T02:06:36.601Z,9.418284
2022-10-05T02:07:36.596Z,9.418280
2022-10-05T02:08:36.588Z,9.418280
2022-10-05T02:09:36.601Z,9.418280
2022-10-05T02:10:36.572Z,9.418285
2022-10-05T02:11:36.572Z,9.418303
2022-10-05T02:12:36.552Z,9.418282
2022-10-05T02:13:36.550Z,9.418330
2022-10-05T02:14:36.548Z,9.418337
2022-10-05T02:15:36.596Z,9.418291
2022-10-05T02:16:36.532Z,9.418324
2022-10-05T02:17:36.530Z,9.418315
2022-10-05T02:18:36.520Z,9.418329
2022-10-05T02:19:36.527Z,9.418327
2022-10-05T02:20:36.513Z,9.418279
2022-10-05T02:21:36.537Z,9.418213
2022-10-05T02:22:36.496Z,9.418188
2022-10-05T02:23:36.484Z,9.418257
2022-10-05T02:24:36.488Z,9.418275
2022-10-05T02:25:36.492Z,9.418145
2022-10-05T02:26:36.465Z,9.418230
2022-10-05T02:27:36.453Z,9.418127
2022-10-05T02:28:36.488Z,9.418185
2022-10-05T02:29:36.443Z,9.418179
2022-10-05T02:30:36.443Z,9.418278
2022-10-05T02:31:36.466Z,9.418301
2022-10-05T02:32:36.424Z,9.418281
2022-10-05T02:33:36.412Z,9.418314
2022-10-05T02:34:36.413Z,9.418244
2022-10-05T02:35:36.416Z,9.418396
2022-10-05T02:36:36.393Z,9.418369
2022-10-05T02:37:36.386Z,9.418250
2022-10-05T02:38:36.388Z,9.418215
2022-10-05T02:39:36.381Z,9.418207
2022-10-05T02:40:36.371Z,9.418344
2022-10-05T02:41:36.390Z,9.418179
2022-10-05T02:42:36.356Z,9.418122
2022-10-05T02:43:36.348Z,9.418206
2022-10-05T02:44:36.343Z,9.418233
2022-10-05T02:45:36.368Z,9.418192
2022-10-05T02:46:36.339Z,9.418252
2022-10-05T02:47:36.316Z,9.418286
2022-10-05T02:48:36.312Z,9.418311
2022-10-05T02:49:36.310Z,9.418293
2022-10-05T02:50:36.316Z,9.418290
2022-10-05T02:51:36.297Z,9.418384
2022-10-05T02:52:36.284Z,9.418358
2022-10-05T02:53:36.283Z,9.418398
2022-10-05T02:54:36.276Z,9.418293
2022-10-05T02:55:36.272Z,9.418229
2022-10-05T02:56:36.272Z,9.418331
2022-10-05T02:57:36.259Z,9.418538
2022-10-05T02:58:36.248Z,9.418524
2022-10-05T02:59:36.237Z,9.418309
2022-10-05T03:00:36.251Z,9.418344
2022-10-05T03:01:36.354Z,9.418283
2022-10-05T03:02:36.220Z,9.418221
2022-10-05T03:03:36.207Z,9.418321
2022-10-05T03:04:36.207Z,9.418468
2022-10-05T03:05:36.206Z,9.418386
2022-10-05T03:06:36.203Z,9.418277
2022-10-05T03:07:36.192Z,9.418274
2022-10-05T03:08:36.184Z,9.418345
2022-10-05T03:09:36.180Z,9.418487
2022-10-05T03:10:36.175Z,9.418282
2022-10-05T03:11:36.165Z,9.418489
2022-10-05T03:12:36.159Z,9.418238
2022-10-05T03:13:36.147Z,9.418371
2022-10-05T03:14:36.143Z,9.418498
2022-10-05T03:15:36.123Z,9.418423
2022-10-05T03:16:36.135Z,9.418308
2022-10-05T03:17:36.119Z,9.418248
2022-10-05T03:18:36.108Z,9.418315
2022-10-05T03:19:36.100Z,9.418324
2022-10-05T03:20:36.095Z,9.418285
2022-10-05T03:21:36.111Z,9.418209
2022-10-05T03:22:36.079Z,9.418174
2022-10-05T03:23:36.107Z,9.418170
2022-10-05T03:24:36.076Z,9.418276
2022-10-05T03:25:36.071Z,9.418277
2022-10-05T03:26:36.067Z,9.418200
2022-10-05T03:27:36.059Z,9.418092
2022-10-05T03:28:36.141Z,9.418159
2022-10-05T03:29:36.035Z,9.418345
2022-10-05T03:30:36.031Z,9.418243
2022-10-05T03:31:36.060Z,9.418327
2022-10-05T03:32:36.010Z,9.418267
2022-10-05T03:33:37.011Z,9.418172
2022-10-05T03:34:35.999Z,9.418201
2022-10-05T03:35:35.999Z,9.418161
2022-10-05T03:36:35.991Z,9.418083
2022-10-05T03:37:35.988Z,9.418230
2022-10-05T03:38:35.975Z,9.418099
2022-10-05T03:39:35.977Z,9.418112
2022-10-05T03:40:35.962Z,9.418073
2022-10-05T03:41:35.955Z,9.418097
2022-10-05T03:42:35.955Z,9.418130
2022-10-05T03:43:35.939Z,9.418221
2022-10-05T03:44:35.935Z,9.418261
2022-10-05T03:45:35.952Z,9.418152
2022-10-05T03:46:36.014Z,9.418135
2022-10-05T03:47:35.919Z,9.418164
2022-10-05T03:48:35.908Z,9.417997
2022-10-05T03:49:35.903Z,9.418094
2022-10-05T03:50:35.887Z,9.418136
2022-10-05T03:51:35.902Z,9.418172
2022-10-05T03:52:35.886Z,9.418158
2022-10-05T03:53:35.873Z,9.418163
2022-10-05T03:54:35.855Z,9.418193
2022-10-05T03:55:35.864Z,9.418155
2022-10-05T03:56:35.859Z,9.418196
2022-10-05T03:57:35.847Z,9.418209
2022-10-05T03:58:35.850Z,9.418133
2022-10-05T03:59:35.831Z,9.418156
2022-10-05T04:00:35.841Z,9.418085
2022-10-05T04:01:35.899Z,9.418164
2022-10-05T04:02:35.861Z,9.418058
2022-10-05T04:03:35.820Z,9.418141
2022-10-05T04:04:35.808Z,9.418199
2022-10-05T04:05:35.792Z,9.418192
2022-10-05T04:06:35.795Z,9.418406
2022-10-05T04:07:35.799Z,9.418212
2022-10-05T04:08:35.807Z,9.418116
2022-10-05T04:09:35.771Z,9.418083
2022-10-05T04:10:35.763Z,9.417954
2022-10-05T04:11:35.756Z,9.418035
2022-10-05T04:12:35.748Z,9.418106
2022-10-05T04:13:35.755Z,9.418155
2022-10-05T04:14:35.742Z,9.418226
2022-10-05T04:15:35.765Z,9.418192
2022-10-05T04:16:35.716Z,9.418222
2022-10-05T04:17:35.707Z,9.418157
2022-10-05T04:18:35.715Z,9.418134
2022-10-05T04:19:36.695Z,9.418055
2022-10-05T04:20:35.711Z,9.418253
2022-10-05T04:21:35.688Z,9.418141
2022-10-05T04:22:35.679Z,9.418104
2022-10-05T04:23:35.692Z,9.418125
2022-10-05T04:24:35.663Z,9.418213
2022-10-05T04:25:35.654Z,9.418242
2022-10-05T04:26:35.646Z,9.418183
2022-10-05T04:27:35.643Z,9.418123
2022-10-05T04:28:35.709Z,9.418180
2022-10-05T04:29:35.627Z,9.418151
2022-10-05T04:30:35.627Z,9.418244
2022-10-05T04:31:35.699Z,9.418146
2022-10-05T04:32:35.612Z,9.418187
2022-10-05T04:33:35.607Z,9.418155
2022-10-05T04:34:35.606Z,9.418215
2022-10-05T04:35:35.588Z,9.418251
2022-10-05T04:36:35.583Z,9.418169
2022-10-05T04:37:35.587Z,9.418131
2022-10-05T04:38:35.554Z,9.418108
2022-10-05T04:39:35.575Z,9.418067
2022-10-05T04:40:35.562Z,9.418072
2022-10-05T04:41:35.543Z,9.418144
2022-10-05T04:42:35.543Z,9.418109
2022-10-05T04:43:35.539Z,9.418131
2022-10-05T04:44:35.543Z,9.418162
2022-10-05T04:45:35.576Z,9.418197
2022-10-05T04:46:35.585Z,9.418278
2022-10-05T04:47:35.514Z,9.418171
2022-10-05T04:48:35.502Z,9.418129
2022-10-05T04:49:35.518Z,9.418099
2022-10-05T04:50:35.486Z,9.418151
2022-10-05T04:51:35.482Z,9.418103
2022-10-05T04:52:35.478Z,9.418173
2022-10-05T04:53:35.464Z,9.418151
2022-10-05T04:54:35.486Z,9.418018
2022-10-05T04:55:35.457Z,9.418116
2022-10-05T04:56:35.446Z,9.418091
2022-10-05T04:57:35.462Z,9.418307
2022-10-05T04:58:40.037Z,9.418317
2022-10-05T04:59:37.418Z,9.418299
2022-10-05T05:00:35.466Z,9.418202
2022-10-05T05:01:35.406Z,9.418149
2022-10-05T05:02:35.398Z,9.418221
2022-10-05T05:03:35.435Z,9.418145
2022-10-05T05:04:35.383Z,9.418295
2022-10-05T05:05:35.383Z,9.418180
2022-10-05T05:06:35.371Z,9.418170
2022-10-05T05:07:35.365Z,9.418141
2022-10-05T05:08:35.373Z,9.418229
2022-10-05T05:09:35.351Z,9.418271
2022-10-05T05:10:35.386Z,9.418265
2022-10-05T05:11:35.330Z,9.418335
2022-10-05T05:12:35.330Z,9.418443
2022-10-05T05:13:35.335Z,9.418375
2022-10-05T05:14:35.315Z,9.418345
2022-10-05T05:15:35.326Z,9.418319
2022-10-05T05:16:35.361Z,9.418349
2022-10-05T05:17:35.297Z,9.418376
2022-10-05T05:18:35.289Z,9.418362
2022-10-05T05:19:35.282Z,9.418330
2022-10-05T05:20:35.278Z,9.418354
2022-10-05T05:21:35.279Z,9.418324
2022-10-05T05:22:35.265Z,9.418242
2022-10-05T05:23:35.274Z,9.418320
2022-10-05T05:24:35.258Z,9.418274
2022-10-05T05:25:35.245Z,9.418256
2022-10-05T05:26:38.910Z,9.418248
2022-10-05T05:27:36.226Z,9.418293
2022-10-05T05:28:35.298Z,9.418257
2022-10-05T05:29:35.214Z,9.418243
2022-10-05T05:30:35.239Z,9.418257
2022-10-05T05:31:35.237Z,9.418296
2022-10-05T05:32:35.206Z,9.418318
2022-10-05T05:33:35.190Z,9.418262
2022-10-05T05:34:35.182Z,9.418319
2022-10-05T05:35:35.178Z,9.418276
2022-10-05T05:36:35.166Z,9.418325
2022-10-05T05:37:35.163Z,9.418242
2022-10-05T05:38:35.180Z,9.418226
2022-10-05T05:39:35.145Z,9.418221
2022-10-05T05:40:35.148Z,9.418332
2022-10-05T05:41:35.134Z,9.418288
2022-10-05T05:42:35.113Z,9.418396
2022-10-05T05:43:35.126Z,9.418373
2022-10-05T05:44:38.553Z,9.418325
2022-10-05T05:45:36.095Z,9.418267
2022-10-05T05:46:58.761Z,9.418419
2022-10-05T05:47:37.159Z,9.418259
2022-10-05T05:48:35.103Z,9.418124
2022-10-05T05:49:35.074Z,9.418129
2022-10-05T05:50:35.062Z,9.418251
2022-10-05T05:51:35.053Z,9.418289
2022-10-05T05:52:35.056Z,9.418270
2022-10-05T05:53:35.051Z,9.418323
2022-10-05T05:54:35.030Z,9.418315
2022-10-05T05:55:35.032Z,9.418214
2022-10-05T05:56:35.029Z,9.418269
2022-10-05T05:57:35.013Z,9.418246
2022-10-05T05:58:35.013Z,9.418229
2022-10-05T05:59:35.030Z,9.418239
2022-10-05T06:00:35.015Z,9.418231
2022-10-05T06:01:34.984Z,9.418303
2022-10-05T06:02:35.094Z,9.418305
2022-10-05T06:03:34.975Z,9.418287
2022-10-05T06:04:34.975Z,9.418267
2022-10-05T06:05:34.961Z,9.418323
2022-10-05T06:06:34.956Z,9.418334
2022-10-05T06:07:34.946Z,9.418303
2022-10-05T06:08:34.942Z,9.418267
2022-10-05T06:09:34.966Z,9.418340
2022-10-05T06:10:34.972Z,9.418335
2022-10-05T06:11:34.921Z,9.418285
2022-10-05T06:12:34.950Z,9.418277
2022-10-05T06:13:34.911Z,9.418386
2022-10-05T06:14:34.925Z,9.418354
2022-10-05T06:15:35.287Z,9.418315
2022-10-05T06:16:34.949Z,9.418326
2022-10-05T06:17:34.869Z,9.418360
2022-10-05T06:18:34.865Z,9.418319
2022-10-05T06:19:34.861Z,9.418297
2022-10-05T06:20:34.876Z,9.418283
2022-10-05T06:21:34.849Z,9.418284
2022-10-05T06:22:34.841Z,9.418319
2022-10-05T06:23:34.825Z,9.418340
2022-10-05T06:24:35.832Z,9.418322
2022-10-05T06:25:34.829Z,9.418344
2022-10-05T06:26:34.823Z,9.418232
2022-10-05T06:27:34.808Z,9.418288
2022-10-05T06:28:34.939Z,9.418217
2022-10-05T06:29:34.836Z,9.418194
2022-10-05T06:30:34.817Z,9.418230
2022-10-05T06:31:34.840Z,9.418295
2022-10-05T06:32:34.924Z,9.418212
2022-10-05T06:33:34.763Z,9.418318
2022-10-05T06:34:34.765Z,9.418291
2022-10-05T06:35:34.790Z,9.418264
2022-10-05T06:36:34.743Z,9.418287
2022-10-05T06:37:35.749Z,9.418269
2022-10-05T06:38:34.734Z,9.418252
2022-10-05T06:39:34.732Z,9.418323
2022-10-05T06:40:34.725Z,9.418279
2022-10-05T06:41:34.747Z,9.418259
2022-10-05T06:42:34.708Z,9.418007
2022-10-05T06:43:34.702Z,9.418232
2022-10-05T06:44:34.696Z,9.418257
2022-10-05T06:45:34.733Z,9.418295
2022-10-05T06:46:34.702Z,9.418246
2022-10-05T06:47:34.664Z,9.418218
2022-10-05T06:48:34.713Z,9.418194
2022-10-05T06:49:34.665Z,9.418242
2022-10-05T06:50:34.653Z,9.418228
2022-10-05T06:51:34.673Z,9.418165
2022-10-05T06:52:34.642Z,9.418263
2022-10-05T06:53:34.637Z,9.418222
2022-10-05T06:54:34.628Z,9.418478
2022-10-05T06:55:34.619Z,9.418294
2022-10-05T06:56:34.617Z,9.418253
2022-10-05T06:57:34.612Z,9.418296
2022-10-05T06:58:34.604Z,9.418220
2022-10-05T06:59:34.593Z,9.418257
2022-10-05T07:00:34.589Z,9.418229
2022-10-05T07:01:34.631Z,9.418197
2022-10-05T07:02:34.758Z,9.418347
2022-10-05T07:03:34.572Z,9.418362
2022-10-05T07:04:36.961Z,9.418310
2022-10-05T07:05:35.568Z,9.418297
2022-10-05T07:06:34.549Z,9.418279
2022-10-05T07:07:34.552Z,9.418299
2022-10-05T07:08:34.528Z,9.418295
2022-10-05T07:09:34.530Z,9.418280
2022-10-05T07:10:34.513Z,9.418277
2022-10-05T07:11:34.516Z,9.418225
2022-10-05T07:12:34.513Z,9.418289
2022-10-05T07:13:34.497Z,9.418185
2022-10-05T07:14:34.493Z,9.418180
2022-10-05T07:15:34.488Z,9.418085
2022-10-05T07:16:34.573Z,9.418196
2022-10-05T07:17:34.552Z,9.418298
2022-10-05T07:18:34.473Z,9.418258
2022-10-05T07:19:34.465Z,9.418268
2022-10-05T07:20:34.457Z,9.418293
2022-10-05T07:21:34.446Z,9.418319
2022-10-05T07:22:34.685Z,9.418270
2022-10-05T07:23:34.503Z,9.418140
2022-10-05T07:24:34.436Z,9.418285
2022-10-05T07:25:34.427Z,9.418239
2022-10-05T07:26:34.420Z,9.418153
2022-10-05T07:27:34.416Z,9.418213
2022-10-05T07:28:34.481Z,9.418215
2022-10-05T07:29:34.400Z,9.418166
2022-10-05T07:30:34.422Z,9.418227
2022-10-05T07:31:34.381Z,9.418158
2022-10-05T07:32:34.380Z,9.418258
2022-10-05T07:33:34.381Z,9.418218
2022-10-05T07:34:34.364Z,9.418368
2022-10-05T07:35:34.356Z,9.418357
2022-10-05T07:36:34.361Z,9.418197
2022-10-05T07:37:34.343Z,9.418316
2022-10-05T07:38:34.357Z,9.418283
2022-10-05T07:39:58.604Z,9.418231
2022-10-05T07:40:36.324Z,9.418259
2022-10-05T07:41:34.316Z,9.418293
2022-10-05T07:42:36.374Z,9.418224
2022-10-05T07:43:51.445Z,9.418211
2022-10-05T07:44:36.306Z,9.418246
2022-10-05T07:45:34.329Z,9.418241
2022-10-05T07:46:34.284Z,9.418229
2022-10-05T07:47:34.268Z,9.418101
2022-10-05T07:48:34.276Z,9.418088
2022-10-05T07:49:34.277Z,9.418210
2022-10-05T07:50:34.256Z,9.418216
2022-10-05T07:51:34.252Z,9.418274
2022-10-05T07:52:35.040Z,9.418289
2022-10-05T07:53:35.263Z,9.418174
2022-10-05T07:54:34.245Z,9.418113
2022-10-05T07:55:34.233Z,9.418056
2022-10-05T07:56:34.221Z,9.418198
2022-10-05T07:57:34.212Z,9.418119
2022-10-05T07:58:34.212Z,9.418083
2022-10-05T07:59:34.408Z,9.418174
2022-10-05T08:00:34.190Z,9.418176
2022-10-05T08:01:34.245Z,9.418340
2022-10-05T08:02:34.393Z,9.418292
2022-10-05T08:03:34.177Z,9.418197
2022-10-05T08:04:38.105Z,9.418311
2022-10-05T08:05:35.156Z,9.418347
2022-10-05T08:06:34.164Z,9.418234
2022-10-05T08:07:34.149Z,9.418207
2022-10-05T08:08:34.151Z,9.418391
2022-10-05T08:09:34.180Z,9.418335
2022-10-05T08:10:34.128Z,9.417933
2022-10-05T08:11:34.120Z,9.418153
2022-10-05T08:12:34.148Z,9.418347
2022-10-05T08:13:34.096Z,9.418343
2022-10-05T08:14:34.131Z,9.418292
2022-10-05T08:15:34.186Z,9.418142
2022-10-05T08:16:34.101Z,9.418098
2022-10-05T08:17:34.080Z,9.418104
2022-10-05T08:18:34.112Z,9.418151
2022-10-05T08:19:34.195Z,9.418283
2022-10-05T08:20:34.060Z,9.418237
2022-10-05T08:21:34.077Z,9.418118
2022-10-05T08:22:34.060Z,9.418139
2022-10-05T08:23:34.060Z,9.418177
2022-10-05T08:24:34.076Z,9.418204
2022-10-05T08:25:34.038Z,9.418255
2022-10-05T08:26:34.056Z,9.418130
2022-10-05T08:27:34.044Z,9.418064
2022-10-05T08:28:34.066Z,9.418110
2022-10-05T08:29:34.050Z,9.418104
2022-10-05T08:30:34.040Z,9.418074
2022-10-05T08:31:34.106Z,9.418140
2022-10-05T08:32:33.988Z,9.418242
2022-10-05T08:33:34.024Z,9.418215
2022-10-05T08:34:33.976Z,9.418164
2022-10-05T08:35:33.994Z,9.418284
2022-10-05T08:36:33.967Z,9.418405
2022-10-05T08:37:33.977Z,9.418237
2022-10-05T08:38:33.948Z,9.418262
2022-10-05T08:39:33.942Z,9.418261
2022-10-05T08:40:33.940Z,9.418262
2022-10-05T08:41:33.939Z,9.418291
2022-10-05T08:42:33.937Z,9.418272
2022-10-05T08:43:35.444Z,9.418346
2022-10-05T08:44:34.916Z,9.418272
2022-10-05T08:45:33.907Z,9.418289
2022-10-05T08:46:33.948Z,9.418200
2022-10-05T08:47:34.054Z,9.418280
2022-10-05T08:48:33.893Z,9.418181
2022-10-05T08:49:35.297Z,9.418097
2022-10-05T08:50:34.883Z,9.418221
2022-10-05T08:51:33.867Z,9.418341
2022-10-05T08:52:33.888Z,9.418213
2022-10-05T08:53:33.853Z,9.418156
2022-10-05T08:54:33.843Z,9.418225
2022-10-05T08:55:33.847Z,9.418259
2022-10-05T08:56:33.840Z,9.418254
2022-10-05T08:57:33.847Z,9.418260
2022-10-05T08:58:33.816Z,9.418137
2022-10-05T08:59:33.791Z,9.418111
2022-10-05T09:00:34.825Z,9.418151
2022-10-05T09:01:33.856Z,9.418036
2022-10-05T09:02:34.049Z,9.418131
2022-10-05T09:03:34.664Z,9.418222
2022-10-05T09:04:34.782Z,9.418156
2022-10-05T09:05:33.773Z,9.418157
2022-10-05T09:06:33.769Z,9.418149
2022-10-05T09:07:36.528Z,9.418213
2022-10-05T09:08:33.770Z,9.418144
2022-10-05T09:09:33.751Z,9.418169
2022-10-05T09:10:33.748Z,9.418167
2022-10-05T09:11:33.727Z,9.418250
2022-10-05T09:12:33.754Z,9.418324
2022-10-05T09:13:33.720Z,9.418278
2022-10-05T09:14:33.723Z,9.418193
2022-10-05T09:15:33.748Z,9.418153
2022-10-05T09:16:33.708Z,9.418256
2022-10-05T09:17:38.518Z,9.418255
2022-10-05T09:18:35.687Z,9.418213
2022-10-05T09:19:33.691Z,9.418335
2022-10-05T09:20:33.685Z,9.418327
2022-10-05T09:21:33.669Z,9.418354
2022-10-05T09:22:33.663Z,9.418292
2022-10-05T09:23:33.647Z,9.418225
2022-10-05T09:24:33.647Z,9.418223
2022-10-05T09:25:33.659Z,9.418249
2022-10-05T09:26:33.636Z,9.418277
2022-10-05T09:27:33.615Z,9.418301
2022-10-05T09:28:33.780Z,9.418213
2022-10-05T09:29:33.621Z,9.418215
2022-10-05T09:30:33.603Z,9.418295
2022-10-05T09:31:33.667Z,9.418230
2022-10-05T09:32:33.596Z,9.418286
2022-10-05T09:33:33.572Z,9.418277
2022-10-05T09:34:33.583Z,9.418212
2022-10-05T09:35:33.580Z,9.418259
2022-10-05T09:36:33.567Z,9.418335
2022-10-05T09:37:33.557Z,9.418256
2022-10-05T09:38:33.571Z,9.418316
2022-10-05T09:39:33.535Z,9.418312
2022-10-05T09:40:33.543Z,9.418364
2022-10-05T09:41:33.532Z,9.418335
2022-10-05T09:42:33.527Z,9.418298
2022-10-05T09:43:33.537Z,9.418264
2022-10-05T09:44:33.516Z,9.418300
2022-10-05T09:45:33.495Z,9.418344
2022-10-05T09:46:33.594Z,9.418195
2022-10-05T09:47:33.514Z,9.418259
2022-10-05T09:48:33.491Z,9.418221
2022-10-05T09:49:33.479Z,9.418289
2022-10-05T09:50:33.480Z,9.418219
2022-10-05T09:51:33.456Z,9.418342
2022-10-05T09:52:33.465Z,9.418332
2022-10-05T09:53:33.480Z,9.418323
2022-10-05T09:54:33.444Z,9.418310
2022-10-05T09:55:33.436Z,9.418280
2022-10-05T09:56:33.451Z,9.418254
2022-10-05T09:57:33.433Z,9.418256
2022-10-05T09:58:33.450Z,9.418244
2022-10-05T09:59:33.412Z,9.418277
2022-10-05T10:00:33.404Z,9.418311
2022-10-05T10:01:34.446Z,9.418302
2022-10-05T10:02:34.493Z,9.418269
2022-10-05T10:03:33.554Z,9.418312
2022-10-05T10:04:33.383Z,9.418302
2022-10-05T10:05:33.375Z,9.418313
2022-10-05T10:06:33.371Z,9.418274
2022-10-05T10:07:33.367Z,9.418212
2022-10-05T10:08:33.372Z,9.418270
2022-10-05T10:09:37.910Z,9.418282
2022-10-05T10:10:35.355Z,9.418173
2022-10-05T10:11:33.336Z,9.418283
2022-10-05T10:12:33.331Z,9.418272
2022-10-05T10:13:33.329Z,9.418287
2022-10-05T10:14:33.319Z,9.418289
2022-10-05T10:15:33.407Z,9.418355
2022-10-05T10:16:33.291Z,9.418433
2022-10-05T10:17:33.294Z,9.418139
2022-10-05T10:18:33.304Z,9.418148
2022-10-05T10:19:33.290Z,9.418161
2022-10-05T10:20:33.275Z,9.418337
2022-10-05T10:21:33.267Z,9.418412
2022-10-05T10:22:33.255Z,9.418345
2022-10-05T10:23:33.255Z,9.418297
2022-10-05T10:24:33.260Z,9.418334
2022-10-05T10:25:33.235Z,9.418421
2022-10-05T10:26:33.235Z,9.418376
2022-10-05T10:27:33.227Z,9.418408
2022-10-05T10:28:33.271Z,9.418336
2022-10-05T10:29:33.221Z,9.418433
2022-10-05T10:30:35.776Z,9.418205
2022-10-05T10:31:33.196Z,9.418210
2022-10-05T10:32:33.289Z,9.418230
2022-10-05T10:33:33.179Z,9.418239
2022-10-05T10:34:33.187Z,9.418365
2022-10-05T10:35:33.191Z,9.418299
2022-10-05T10:36:33.172Z,9.418220
2022-10-05T10:37:33.152Z,9.418260
2022-10-05T10:38:33.148Z,9.418232
2022-10-05T10:39:33.170Z,9.418276
2022-10-05T10:40:33.127Z,9.418261
2022-10-05T10:41:33.127Z,9.418263
2022-10-05T10:42:33.116Z,9.418351
2022-10-05T10:43:33.123Z,9.418359
2022-10-05T10:44:33.115Z,9.418169
2022-10-05T10:45:33.104Z,9.418084
2022-10-05T10:46:33.110Z,9.418166
2022-10-05T10:47:33.085Z,9.418301
2022-10-05T10:48:33.073Z,9.418297
2022-10-05T10:49:33.067Z,9.418240
2022-10-05T10:50:33.078Z,9.418220
2022-10-05T10:51:33.056Z,9.418315
2022-10-05T10:52:33.041Z,9.418269
2022-10-05T10:53:33.037Z,9.418301
2022-10-05T10:54:33.037Z,9.418241
2022-10-05T10:55:33.039Z,9.418283
2022-10-05T10:56:33.033Z,9.418210
2022-10-05T10:57:33.017Z,9.418308
2022-10-05T10:58:33.031Z,9.418252
2022-10-05T10:59:33.993Z,9.418345
2022-10-05T11:00:32.994Z,9.418307
2022-10-05T11:01:33.089Z,9.418284
2022-10-05T11:02:33.033Z,9.418313
2022-10-05T11:03:32.976Z,9.418393
2022-10-05T11:04:33.013Z,9.418359
2022-10-05T11:05:32.956Z,9.418282
2022-10-05T11:06:32.987Z,9.418289
2022-10-05T11:07:33.966Z,9.418346
2022-10-05T11:08:32.945Z,9.418353
2022-10-05T11:09:32.938Z,9.418385
2022-10-05T11:10:32.943Z,9.418394
2022-10-05T11:11:32.914Z,9.418396
2022-10-05T11:12:34.710Z,9.418371
2022-10-05T11:13:33.909Z,9.418273
2022-10-05T11:14:32.892Z,9.418257
2022-10-05T11:15:32.953Z,9.418266
2022-10-05T11:16:32.895Z,9.418234
2022-10-05T11:17:32.897Z,9.418352
2022-10-05T11:18:32.890Z,9.418304
2022-10-05T11:19:40.460Z,9.418188
2022-10-05T11:20:34.865Z,9.418150
2022-10-05T11:21:32.857Z,9.418310
2022-10-05T11:22:32.860Z,9.418218
2022-10-05T11:23:37.958Z,9.418234
2022-10-05T11:24:34.844Z,9.418316
2022-10-05T11:25:32.835Z,9.418288
2022-10-05T11:26:32.820Z,9.418297
2022-10-05T11:27:32.808Z,9.418301
2022-10-05T11:28:32.884Z,9.418307
2022-10-05T11:29:32.797Z,9.418316
2022-10-05T11:30:32.793Z,9.418291
2022-10-05T11:31:32.811Z,9.418335
2022-10-05T11:32:32.776Z,9.418346
2022-10-05T11:33:32.797Z,9.418353
2022-10-05T11:34:32.768Z,9.418355
2022-10-05T11:35:32.756Z,9.418335
2022-10-05T11:36:32.773Z,9.418335
2022-10-05T11:37:32.746Z,9.418361
2022-10-05T11:38:32.733Z,9.418344
2022-10-05T11:39:32.734Z,9.418376
2022-10-05T11:40:32.728Z,9.418371
2022-10-05T11:41:32.724Z,9.418291
2022-10-05T11:42:32.713Z,9.418288
2022-10-05T11:43:32.704Z,9.418289
2022-10-05T11:44:32.704Z,9.418298